createdAt,value
2022-12-19T00:01:40.272Z,102484.28
2022-12-19T00:04:12.271Z,102478.03
2022-12-19T00:06:43.356Z,102474.75
2022-12-19T00:09:11.153Z,102464.38
2022-12-19T00:11:39.367Z,102461.59
2022-12-19T00:14:07.308Z,102457.78
2022-12-19T00:16:34.706Z,102455.97
2022-12-19T00:19:02.776Z,102455.25
2022-12-19T00:21:34.687Z,102458.03
2022-12-19T00:24:03.287Z,102457.91
2022-12-19T00:26:34.823Z,102476.78
2022-12-19T00:29:04.473Z,102469.13
2022-12-19T00:31:37.151Z,102464.25
2022-12-19T00:34:04.942Z,102455.44
2022-12-19T00:36:35.232Z,102455.81
2022-12-19T00:39:08.225Z,102458.38
2022-12-19T00:41:39.419Z,102449.09
2022-12-19T00:44:20.338Z,102440.75
2022-12-19T00:46:52.749Z,102440.16
2022-12-19T00:49:20.862Z,102441.94
2022-12-19T00:51:49.671Z,102444.72
2022-12-19T00:54:17.112Z,102441.69
2022-12-19T00:56:45.221Z,102427.50
2022-12-19T00:59:12.663Z,102420.31
2022-12-19T01:01:42.327Z,102422.19
2022-12-19T01:04:30.332Z,102422.59
2022-12-19T01:07:02.751Z,102412.03
2022-12-19T01:09:30.779Z,102399.97
2022-12-19T01:12:15.835Z,102389.84
2022-12-19T01:14:43.387Z,102385.81
2022-12-19T01:17:10.935Z,102372.09
2022-12-19T01:19:43.628Z,102368.84
2022-12-19T01:22:13.626Z,102370.63
2022-12-19T01:24:41.592Z,102358.59
2022-12-19T01:27:09.160Z,102358.53
2022-12-19T01:29:37.650Z,102354.06
2022-12-19T01:32:20.179Z,102353.34
2022-12-19T01:34:47.712Z,102348.59
2022-12-19T01:37:19.493Z,102341.50
2022-12-19T01:39:47.522Z,102325.50
2022-12-19T01:42:17.677Z,102311.00
2022-12-19T01:45:33.957Z,102312.63
2022-12-19T01:48:12.170Z,102318.47
2022-12-19T01:50:51.441Z,102309.00
2022-12-19T01:53:29.885Z,102309.34
2022-12-19T01:55:57.399Z,102305.03
2022-12-19T01:58:24.959Z,102304.84
2022-12-19T02:00:52.535Z,102287.25
2022-12-19T02:03:23.515Z,102280.78
2022-12-19T02:05:52.276Z,102285.28
2022-12-19T02:08:20.258Z,102289.50
2022-12-19T02:10:49.778Z,102293.69
2022-12-19T02:13:17.719Z,102284.06
2022-12-19T02:15:54.669Z,102284.16
2022-12-19T02:18:35.708Z,102281.56
2022-12-19T02:21:22.538Z,102281.38
2022-12-19T02:24:13.321Z,102270.63
2022-12-19T02:27:01.143Z,102269.00
2022-12-19T02:29:53.131Z,102268.03
2022-12-19T02:32:32.284Z,102258.44
2022-12-19T02:35:12.427Z,102259.53
2022-12-19T02:37:52.794Z,102246.56
2022-12-19T02:40:29.359Z,102258.88
2022-12-19T02:43:03.087Z,102241.06
2022-12-19T02:45:38.384Z,102258.53
2022-12-19T02:48:19.267Z,102253.94
2022-12-19T02:50:50.528Z,102247.09
2022-12-19T02:53:23.999Z,102249.81
2022-12-19T02:56:19.362Z,102245.72
2022-12-19T02:59:01.736Z,102236.78
2022-12-19T03:01:41.346Z,102240.59
2022-12-19T03:04:19.855Z,102236.75
2022-12-19T03:07:00.756Z,102243.38
2022-12-19T03:09:48.224Z,102237.53
2022-12-19T03:12:25.352Z,102228.56
2022-12-19T03:15:02.159Z,102220.91
2022-12-19T03:17:30.659Z,102230.31
2022-12-19T03:20:00.364Z,102220.59
2022-12-19T03:22:28.950Z,102231.16
2022-12-19T03:24:57.539Z,102238.03
2022-12-19T03:27:30.943Z,102236.22
2022-12-19T03:30:05.130Z,102231.91
2022-12-19T03:32:35.257Z,102231.34
2022-12-19T03:35:09.350Z,102213.50
2022-12-19T03:37:44.193Z,102200.50
2022-12-19T03:40:17.990Z,102214.63
2022-12-19T03:43:08.203Z,102212.88
2022-12-19T03:45:49.505Z,102219.44
2022-12-19T03:48:25.852Z,102221.50
2022-12-19T03:51:24.637Z,102217.72
2022-12-19T03:54:00.709Z,102220.84
2022-12-19T03:56:36.874Z,102212.66
2022-12-19T03:59:17.323Z,102217.59
2022-12-19T04:01:54.366Z,102212.00
2022-12-19T04:04:24.851Z,102228.44
2022-12-19T04:07:00.602Z,102217.53
2022-12-19T04:09:31.605Z,102212.06
2022-12-19T04:12:13.091Z,102220.34
2022-12-19T04:14:47.971Z,102214.53
2022-12-19T04:17:25.720Z,102210.41
2022-12-19T04:20:08.555Z,102207.25
2022-12-19T04:22:41.766Z,102208.69
2022-12-19T04:25:16.625Z,102208.28
2022-12-19T04:27:49.797Z,102202.22
2022-12-19T04:30:24.002Z,102205.81
2022-12-19T04:32:52.690Z,102216.56
2022-12-19T04:35:24.046Z,102212.22
2022-12-19T04:38:00.709Z,102215.59
2022-12-19T04:40:30.130Z,102208.22
2022-12-19T04:42:58.391Z,102215.59
2022-12-19T04:45:37.522Z,102215.59
2022-12-19T04:48:12.719Z,102208.91
2022-12-19T04:50:42.979Z,102200.19
2022-12-19T04:53:15.544Z,102192.97
2022-12-19T04:55:45.580Z,102184.66
2022-12-19T04:58:23.053Z,102177.88
2022-12-19T05:00:54.110Z,102179.84
2022-12-19T05:03:22.751Z,102180.59
2022-12-19T05:05:57.012Z,102180.53
2022-12-19T05:08:25.784Z,102185.59
2022-12-19T05:10:53.226Z,102187.13
2022-12-19T05:13:20.666Z,102176.44
2022-12-19T05:15:56.901Z,102165.94
2022-12-19T05:18:24.353Z,102175.28
2022-12-19T05:20:52.082Z,102168.13
2022-12-19T05:23:20.106Z,102167.66
2022-12-19T05:25:49.085Z,102180.81
2022-12-19T05:28:17.758Z,102180.53
2022-12-19T05:30:50.602Z,102178.00
2022-12-19T05:33:19.630Z,102168.34
2022-12-19T05:35:49.374Z,102164.94
2022-12-19T05:38:16.776Z,102164.84
2022-12-19T05:40:44.209Z,102175.97
2022-12-19T05:43:12.999Z,102155.81
2022-12-19T05:45:40.968Z,102159.41
2022-12-19T05:48:08.675Z,102139.59
2022-12-19T05:50:37.281Z,102149.34
2022-12-19T05:53:04.713Z,102155.22
2022-12-19T05:55:32.532Z,102140.56
2022-12-19T05:57:59.931Z,102132.88
2022-12-19T06:00:28.704Z,102137.41
2022-12-19T06:02:56.213Z,102130.56
2022-12-19T06:05:23.770Z,102131.22
2022-12-19T06:07:51.229Z,102123.97
2022-12-19T06:10:18.766Z,102125.44
2022-12-19T06:12:46.302Z,102127.69
2022-12-19T06:15:13.748Z,102117.56
2022-12-19T06:17:42.515Z,102105.22
2022-12-19T06:20:11.246Z,102096.72
2022-12-19T06:22:38.735Z,102085.75
2022-12-19T06:25:07.723Z,102093.25
2022-12-19T06:27:35.167Z,102090.44
2022-12-19T06:30:02.677Z,102090.75
2022-12-19T06:32:33.543Z,102084.81
2022-12-19T06:35:07.563Z,102089.97
2022-12-19T06:37:38.925Z,102079.59
2022-12-19T06:40:08.230Z,102069.94
2022-12-19T06:42:34.746Z,102070.03
2022-12-19T06:45:02.299Z,102078.13
2022-12-19T06:47:29.771Z,102083.34
2022-12-19T06:49:57.252Z,102080.81
2022-12-19T06:52:26.056Z,102081.94
2022-12-19T06:54:53.815Z,102094.50
2022-12-19T06:57:21.278Z,102088.28
2022-12-19T06:59:48.762Z,102087.97
2022-12-19T07:02:27.675Z,102114.88
2022-12-19T07:05:00.950Z,102107.56
2022-12-19T07:07:30.653Z,102104.94
2022-12-19T07:09:58.562Z,102093.69
2022-12-19T07:12:27.236Z,102085.53
2022-12-19T07:14:54.662Z,102077.06
2022-12-19T07:17:24.043Z,102078.03
2022-12-19T07:19:51.800Z,102084.22
2022-12-19T07:22:19.396Z,102084.84
2022-12-19T07:24:48.417Z,102071.19
2022-12-19T07:27:15.982Z,102083.78
2022-12-19T07:29:43.543Z,102084.00
2022-12-19T07:32:10.978Z,102084.84
2022-12-19T07:34:38.444Z,102074.38
2022-12-19T07:37:06.812Z,102076.69
2022-12-19T07:39:34.254Z,102082.88
2022-12-19T07:42:02.981Z,102082.31
2022-12-19T07:44:30.449Z,102077.50
2022-12-19T07:46:58.746Z,102087.66
2022-12-19T07:49:26.233Z,102092.19
2022-12-19T07:51:53.765Z,102088.53
2022-12-19T07:54:21.342Z,102077.13
2022-12-19T07:56:48.819Z,102078.00
2022-12-19T07:59:17.581Z,102071.34
2022-12-19T08:01:45.339Z,102080.84
2022-12-19T08:04:13.188Z,102066.97
2022-12-19T08:06:41.540Z,102069.09
2022-12-19T08:09:09.251Z,102066.59
2022-12-19T08:11:36.764Z,102054.06
2022-12-19T08:14:04.449Z,102050.16
2022-12-19T08:16:43.905Z,102054.97
2022-12-19T08:19:17.100Z,102053.88
2022-12-19T08:21:44.751Z,102042.16
2022-12-19T08:24:12.310Z,102032.28
2022-12-19T08:26:44.544Z,102028.13
2022-12-19T08:29:14.931Z,102039.38
2022-12-19T08:31:43.762Z,102041.81
2022-12-19T08:34:11.176Z,102033.06
2022-12-19T08:36:39.466Z,102055.50
2022-12-19T08:39:06.934Z,102046.69
2022-12-19T08:41:34.405Z,102046.22
2022-12-19T08:44:02.152Z,102031.31
2022-12-19T08:46:30.107Z,102025.69
2022-12-19T08:48:59.564Z,102028.84
2022-12-19T08:51:27.647Z,102025.38
2022-12-19T08:53:55.094Z,102011.19
2022-12-19T08:56:23.118Z,102005.47
2022-12-19T08:58:52.488Z,102003.59
2022-12-19T09:01:23.919Z,101993.44
2022-12-19T09:04:12.987Z,101998.81
2022-12-19T09:06:40.572Z,101987.91
2022-12-19T09:09:08.049Z,101987.19
2022-12-19T09:11:46.705Z,101968.56
2022-12-19T09:14:21.335Z,101967.13
2022-12-19T09:16:49.519Z,101972.25
2022-12-19T09:19:18.072Z,101958.81
2022-12-19T09:21:46.864Z,101960.75
2022-12-19T09:24:14.648Z,101964.47
2022-12-19T09:26:44.117Z,101963.66
2022-12-19T09:29:19.924Z,101963.44
2022-12-19T09:31:50.406Z,101952.34
2022-12-19T09:34:24.811Z,101948.84
2022-12-19T09:36:56.189Z,101943.75
2022-12-19T09:39:23.615Z,101946.09
2022-12-19T09:42:07.145Z,101942.09
2022-12-19T09:44:57.102Z,101931.34
2022-12-19T09:47:27.870Z,101929.75
2022-12-19T09:49:55.757Z,101921.69
2022-12-19T09:52:31.511Z,101917.34
2022-12-19T09:55:04.609Z,101914.94
2022-12-19T09:57:47.982Z,101907.56
2022-12-19T10:00:19.608Z,101901.63
2022-12-19T10:02:51.570Z,101893.56
2022-12-19T10:05:49.598Z,101876.72
2022-12-19T10:08:18.756Z,101864.91
2022-12-19T10:12:40.651Z,101871.56
2022-12-19T10:14:01.642Z,101872.09
2022-12-19T10:16:37.273Z,101871.56
2022-12-19T10:19:08.210Z,101874.94
2022-12-19T10:22:16.277Z,101872.22
2022-12-19T10:24:51.965Z,101858.78
2022-12-19T10:27:58.578Z,101856.34
2022-12-19T10:30:28.336Z,101847.47
2022-12-19T10:33:06.719Z,101853.69
2022-12-19T10:35:43.373Z,101836.06
2022-12-19T10:38:22.230Z,101847.53
2022-12-19T10:40:56.363Z,101841.75
2022-12-19T10:43:35.650Z,101823.25
2022-12-19T10:46:18.509Z,101832.75
2022-12-19T10:48:46.189Z,101824.09
2022-12-19T10:51:14.789Z,101814.69
2022-12-19T10:53:42.329Z,101810.84
2022-12-19T10:56:22.851Z,101812.03
2022-12-19T10:58:57.253Z,101802.16
2022-12-19T11:01:28.260Z,101798.38
2022-12-19T11:04:15.573Z,101792.66
2022-12-19T11:06:48.275Z,101780.44
2022-12-19T11:09:25.007Z,101789.44
2022-12-19T11:17:06.996Z,101774.00
2022-12-19T11:18:11.661Z,101769.38
2022-12-19T11:25:00.087Z,101764.69
2022-12-19T11:29:30.270Z,101760.69
2022-12-19T11:29:43.950Z,101764.09
2022-12-19T11:30:36.278Z,101755.34
2022-12-19T11:30:36.553Z,101744.78
2022-12-19T11:32:31.465Z,101748.97
2022-12-19T11:34:36.001Z,101756.00
2022-12-19T11:37:14.242Z,101747.53
2022-12-19T11:39:46.589Z,101757.72
2022-12-19T11:42:22.168Z,101742.44
2022-12-19T11:44:59.087Z,101742.59
2022-12-19T11:47:34.797Z,101741.81
2022-12-19T11:50:05.701Z,101748.81
2022-12-19T11:55:40.530Z,101738.06
2022-12-19T11:58:11.030Z,101733.75
2022-12-19T12:00:45.747Z,101729.06
2022-12-19T12:03:57.026Z,101725.31
2022-12-19T12:06:34.810Z,101724.13
2022-12-19T12:11:46.641Z,101714.38
2022-12-19T12:22:29.119Z,101707.19
2022-12-19T12:25:48.652Z,101706.00
2022-12-19T12:31:06.986Z,101690.16
2022-12-19T12:31:26.890Z,101698.13
2022-12-19T12:31:52.739Z,101704.75
2022-12-19T12:31:57.583Z,101706.41
2022-12-19T12:32:00.976Z,101692.25
2022-12-19T12:35:35.107Z,101688.88
2022-12-19T12:37:52.421Z,101685.50
2022-12-19T12:39:21.931Z,101682.03
2022-12-19T12:42:07.038Z,101681.91
2022-12-19T12:44:41.372Z,101679.16
2022-12-19T12:47:18.235Z,101681.84
2022-12-19T12:49:51.238Z,101681.03
2022-12-19T12:52:22.763Z,101669.59
2022-12-19T12:54:51.417Z,101676.13
2022-12-19T12:57:21.960Z,101668.53
2022-12-19T13:00:21.529Z,101658.59
2022-12-19T13:02:53.976Z,101660.25
2022-12-19T13:05:35.377Z,101654.94
2022-12-19T13:08:23.214Z,101659.38
2022-12-19T13:10:55.280Z,101650.41
2022-12-19T13:13:50.650Z,101649.84
2022-12-19T13:16:53.324Z,101639.78
2022-12-19T13:19:28.436Z,101639.13
2022-12-19T13:22:20.496Z,101646.44
2022-12-19T13:24:50.983Z,101638.28
2022-12-19T13:27:40.560Z,101633.63
2022-12-19T13:30:17.282Z,101634.22
2022-12-19T13:33:10.939Z,101632.16
2022-12-19T13:39:10.706Z,101620.66
2022-12-19T13:40:01.199Z,101633.88
2022-12-19T13:41:48.734Z,101631.94
2022-12-19T13:44:20.561Z,101634.94
2022-12-19T13:46:48.068Z,101626.19
2022-12-19T13:49:20.782Z,101621.00
2022-12-19T13:51:50.555Z,101631.34
2022-12-19T13:54:24.756Z,101618.59
2022-12-19T13:56:53.984Z,101622.88
2022-12-19T13:59:23.561Z,101607.97
2022-12-19T14:01:53.761Z,101609.34
2022-12-19T14:04:30.250Z,101614.16
2022-12-19T14:07:01.267Z,101618.59
2022-12-19T14:11:28.011Z,101608.16
2022-12-19T14:13:44.070Z,101609.94
2022-12-19T14:15:30.309Z,101614.16
2022-12-19T14:18:43.433Z,101613.06
2022-12-19T14:22:01.852Z,101613.31
2022-12-19T14:23:44.101Z,101610.97
2022-12-19T14:28:20.805Z,101611.41
2022-12-19T14:29:09.455Z,101607.56
2022-12-19T14:31:39.712Z,101598.59
2022-12-19T14:35:46.535Z,101594.47
2022-12-19T14:37:54.277Z,101595.13
2022-12-19T14:40:25.740Z,101595.56
2022-12-19T14:43:56.741Z,101611.88
2022-12-19T14:54:16.320Z,101593.84
2022-12-19T14:54:16.320Z,101605.47
2022-12-19T14:54:34.135Z,101592.28
2022-12-19T14:56:13.044Z,101595.78
2022-12-19T14:58:54.982Z,101590.75
2022-12-19T15:01:24.218Z,101594.75
2022-12-19T15:04:53.081Z,101593.16
2022-12-19T15:07:07.385Z,101578.19
2022-12-19T15:11:07.821Z,101578.53
2022-12-19T15:14:51.164Z,101567.69
2022-12-19T15:15:45.362Z,101567.69
2022-12-19T15:18:22.444Z,101572.44
2022-12-19T15:20:50.499Z,101572.00
2022-12-19T15:23:22.391Z,101570.97
2022-12-19T15:26:07.997Z,101571.78
2022-12-19T15:28:40.108Z,101571.47
2022-12-19T15:31:29.746Z,101575.94
2022-12-19T15:34:33.179Z,101574.50
2022-12-19T15:36:45.254Z,101582.06
2022-12-19T15:39:13.453Z,101576.09
2022-12-19T15:41:40.886Z,101572.16
2022-12-19T15:44:10.786Z,101572.00
2022-12-19T15:46:44.725Z,101568.72
2022-12-19T15:49:17.077Z,101569.81
2022-12-19T15:51:44.772Z,101571.09
2022-12-19T15:56:59.776Z,101562.69
2022-12-19T15:59:37.509Z,101551.00
2022-12-19T16:02:16.938Z,101567.53
2022-12-19T16:04:45.755Z,101560.13
2022-12-19T16:07:16.060Z,101550.41
2022-12-19T16:09:43.580Z,101548.97
2022-12-19T16:12:15.786Z,101532.03
2022-12-19T16:14:43.647Z,101536.97
2022-12-19T16:17:18.949Z,101548.06
2022-12-19T16:19:46.408Z,101543.56
2022-12-19T16:22:19.389Z,101538.06
2022-12-19T16:24:46.967Z,101538.66
2022-12-19T16:27:22.688Z,101541.75
2022-12-19T16:29:50.663Z,101546.53
2022-12-19T16:32:20.140Z,101539.75
2022-12-19T16:34:48.930Z,101535.84
2022-12-19T16:37:16.458Z,101530.84
2022-12-19T16:39:43.895Z,101538.94
2022-12-19T16:42:16.108Z,101540.88
2022-12-19T16:44:46.067Z,101533.28
2022-12-19T16:47:15.090Z,101530.19
2022-12-19T16:49:44.527Z,101530.75
2022-12-19T16:52:12.429Z,101538.19
2022-12-19T16:54:40.273Z,101538.31
2022-12-19T16:57:17.622Z,101523.38
2022-12-19T16:59:45.135Z,101531.28
2022-12-19T17:02:32.562Z,101523.47
2022-12-19T17:05:01.444Z,101529.56
2022-12-19T17:07:32.054Z,101530.69
2022-12-19T17:09:59.543Z,101523.22
2022-12-19T17:12:28.418Z,101524.44
2022-12-19T17:14:55.973Z,101520.53
2022-12-19T17:17:23.442Z,101518.34
2022-12-19T17:19:50.911Z,101513.91
2022-12-19T17:22:21.354Z,101523.22
2022-12-19T17:24:50.143Z,101522.44
2022-12-19T17:27:19.180Z,101522.78
2022-12-19T17:29:47.106Z,101516.56
2022-12-19T17:32:23.345Z,101517.09
2022-12-19T17:34:51.797Z,101513.72
2022-12-19T17:37:20.596Z,101514.31
2022-12-19T17:39:48.821Z,101511.03
2022-12-19T17:42:19.512Z,101518.75
2022-12-19T17:44:46.963Z,101514.44
2022-12-19T17:47:16.348Z,101507.44
2022-12-19T17:49:44.365Z,101519.72
2022-12-19T17:52:15.395Z,101519.09
2022-12-19T17:54:44.488Z,101494.28
2022-12-19T17:57:15.698Z,101492.31
2022-12-19T17:59:43.434Z,101498.63
2022-12-19T18:02:21.197Z,101494.63
2022-12-19T18:04:48.804Z,101493.19
2022-12-19T18:07:18.160Z,101493.91
2022-12-19T18:09:47.128Z,101490.69
2022-12-19T18:12:14.747Z,101485.91
2022-12-19T18:14:42.359Z,101489.75
2022-12-19T18:17:12.386Z,101500.66
2022-12-19T18:19:40.245Z,101499.78
2022-12-19T18:22:11.763Z,101504.47
2022-12-19T18:24:39.303Z,101517.41
2022-12-19T18:27:08.121Z,101514.84
2022-12-19T18:29:35.893Z,101514.97
2022-12-19T18:32:03.565Z,101511.44
2022-12-19T18:34:34.235Z,101515.06
2022-12-19T18:37:03.785Z,101511.84
2022-12-19T18:39:32.068Z,101505.22
2022-12-19T18:41:59.512Z,101524.94
2022-12-19T18:44:28.277Z,101517.63
2022-12-19T18:46:55.782Z,101512.31
2022-12-19T18:49:23.777Z,101521.19
2022-12-19T18:51:51.232Z,101517.03
2022-12-19T18:54:20.639Z,101518.63
2022-12-19T18:56:48.811Z,101512.03
2022-12-19T18:59:16.241Z,101504.38
2022-12-19T19:01:47.416Z,101504.91
2022-12-19T19:04:18.093Z,101503.53
2022-12-19T19:06:51.507Z,101500.75
2022-12-19T19:09:21.974Z,101487.06
2022-12-19T19:11:49.460Z,101488.59
2022-12-19T19:14:16.990Z,101479.06
2022-12-19T19:16:45.887Z,101484.31
2022-12-19T19:19:17.529Z,101467.44
2022-12-19T19:21:45.512Z,101467.53
2022-12-19T19:24:15.825Z,101472.44
2022-12-19T19:26:43.324Z,101478.22
2022-12-19T19:29:13.465Z,101465.34
2022-12-19T19:31:44.993Z,101461.50
2022-12-19T19:34:19.420Z,101458.44
2022-12-19T19:36:50.225Z,101459.94
2022-12-19T19:39:19.779Z,101458.47
2022-12-19T19:41:47.212Z,101467.84
2022-12-19T19:44:14.795Z,101468.09
2022-12-19T19:46:42.316Z,101464.94
2022-12-19T19:49:09.856Z,101467.88
2022-12-19T19:51:39.257Z,101465.84
2022-12-19T19:54:06.778Z,101463.81
2022-12-19T19:56:34.225Z,101452.72
2022-12-19T19:59:01.733Z,101459.47
2022-12-19T20:01:29.257Z,101456.78
2022-12-19T20:03:56.987Z,101462.38
2022-12-19T20:06:24.768Z,101454.03
2022-12-19T20:08:53.528Z,101455.63
2022-12-19T20:11:21.527Z,101449.31
2022-12-19T20:13:49.181Z,101444.41
2022-12-19T20:16:18.734Z,101446.47
2022-12-19T20:18:49.284Z,101447.75
2022-12-19T20:21:17.143Z,101453.66
2022-12-19T20:23:45.129Z,101441.13
2022-12-19T20:26:16.202Z,101442.09
2022-12-19T20:28:49.104Z,101451.03
2022-12-19T20:31:17.679Z,101447.53
2022-12-19T20:33:46.217Z,101442.09
2022-12-19T20:36:13.920Z,101434.13
2022-12-19T20:38:41.616Z,101428.66
2022-12-19T20:41:09.708Z,101433.91
2022-12-19T20:43:38.970Z,101436.78
2022-12-19T20:46:08.538Z,101432.66
2022-12-19T20:48:36.584Z,101425.31
2022-12-19T20:51:05.162Z,101440.69
2022-12-19T20:53:33.282Z,101449.22
2022-12-19T20:56:02.137Z,101455.03
2022-12-19T20:58:31.570Z,101458.78
2022-12-19T21:01:06.233Z,101457.94
2022-12-19T21:03:34.144Z,101463.22
2022-12-19T21:06:02.008Z,101457.03
2022-12-19T21:08:29.988Z,101445.25
2022-12-19T21:10:57.600Z,101455.03
2022-12-19T21:13:25.135Z,101453.06
2022-12-19T21:15:53.854Z,101461.88
2022-12-19T21:18:22.972Z,101462.00
2022-12-19T21:20:53.134Z,101455.94
2022-12-19T21:23:21.127Z,101466.94
2022-12-19T21:25:49.274Z,101462.38
2022-12-19T21:28:16.776Z,101472.50
2022-12-19T21:30:44.589Z,101474.81
2022-12-19T21:33:12.216Z,101475.53
2022-12-19T21:35:40.989Z,101455.66
2022-12-19T21:38:08.407Z,101456.88
2022-12-19T21:40:37.418Z,101467.31
2022-12-19T21:43:11.495Z,101459.50
2022-12-19T21:45:40.076Z,101466.44
2022-12-19T21:48:08.090Z,101457.94
2022-12-19T21:50:36.516Z,101454.78
2022-12-19T21:53:05.353Z,101459.84
2022-12-19T21:55:32.888Z,101454.84
2022-12-19T21:58:00.432Z,101446.56
2022-12-19T22:00:28.745Z,101444.34
2022-12-19T22:03:13.291Z,101436.47
2022-12-19T22:05:41.832Z,101436.31
2022-12-19T22:08:11.903Z,101436.75
2022-12-19T22:10:40.677Z,101437.81
2022-12-19T22:13:08.142Z,101429.91
2022-12-19T22:15:36.552Z,101433.38
2022-12-19T22:18:04.382Z,101439.34
2022-12-19T22:20:32.095Z,101445.06
2022-12-19T22:22:59.823Z,101448.28
2022-12-19T22:25:28.725Z,101432.28
2022-12-19T22:27:56.479Z,101416.69
2022-12-19T22:30:24.088Z,101413.34
2022-12-19T22:32:51.579Z,101434.84
2022-12-19T22:35:19.805Z,101435.16
2022-12-19T22:37:47.452Z,101439.19
2022-12-19T22:40:15.203Z,101426.25
2022-12-19T22:42:44.172Z,101426.22
2022-12-19T22:45:12.319Z,101413.13
2022-12-19T22:47:42.564Z,101416.81
2022-12-19T22:50:11.460Z,101417.63
2022-12-19T22:52:40.280Z,101418.78
2022-12-19T22:55:08.750Z,101413.78
2022-12-19T22:57:36.352Z,101403.72
2022-12-19T23:00:07.458Z,101400.88
2022-12-19T23:02:35.473Z,101398.88
2022-12-19T23:05:03.151Z,101394.81
2022-12-19T23:07:30.991Z,101406.19
2022-12-19T23:09:58.551Z,101395.16
2022-12-19T23:12:26.677Z,101406.88
2022-12-19T23:14:54.355Z,101398.72
2022-12-19T23:17:23.666Z,101404.13
2022-12-19T23:19:51.245Z,101399.00
2022-12-19T23:22:18.804Z,101408.22
2022-12-19T23:24:46.674Z,101413.31
2022-12-19T23:27:14.301Z,101406.88
2022-12-19T23:29:43.586Z,101405.28
2022-12-19T23:32:11.704Z,101407.56
2022-12-19T23:34:40.639Z,101412.72
2022-12-19T23:37:11.201Z,101399.00
2022-12-19T23:39:39.615Z,101393.03
2022-12-19T23:42:07.039Z,101396.22
2022-12-19T23:44:34.763Z,101390.94
2022-12-19T23:47:03.836Z,101389.41
2022-12-19T23:49:32.276Z,101386.56
2022-12-19T23:52:01.097Z,101373.66
2022-12-19T23:54:28.627Z,101382.44
2022-12-19T23:56:56.121Z,101381.50
2022-12-19T23:59:23.718Z,101373.16
